Hardinsburg, IN

11:10 AM EDT on September 17, 2014 (GMT -0400)
Bowman | Change Station
CLOSE
Current Station
Airport
Location: Louisville Bowman,
Elevation: 545 ft
Nearby Weather Stations

Elev 545 ft 38.23 °N, 85.66 °W | Updated 17 minutes ago

Partly Cloudy
Partly Cloudy
61 °F
Feels Like 61 °F
N
0
Wind Variable Wind from North

Today
High -- | Low -- °F
--% Chance of Precip.
Yesterday
High -- | Low -- °F
Precip. -- in
7:28 AM 7:50 PM
Waning Crescent, 35% visible
Pressure 30.06 in
Visibility 10.0 miles
Clouds Overcast 3300 ft
Dew Point 51 °F
Humidity 70%
Rainfall 0.00 in
Snow Depth Not available.
UV 1 out of 12
Pollen 5.70 out of 12
Ozone Good
PM2.5 Moderate
Flu Activity Not available.
METAR KLOU 171453Z 00000KT 10SM OVC033 16/11 A3006 RMK AO2 SLP178 T01610106 56005

More Conditions Fewer Conditions

Pressure 30.06 in
Visibility 10.0 miles
Clouds Overcast 3300 ft
Dew Point 51 °F
Humidity 70%
Rainfall 0.00 in
Snow Depth Not available.
UV 1 out of 12
Pollen 5.70 out of 12
Ozone Good
PM2.5 Moderate
Flu Activity Not available.
METAR KLOU 171453Z 00000KT 10SM OVC033 16/11 A3006 RMK AO2 SLP178 T01610106 56005

More Conditions Fewer Conditions

10-Day Weather Forecast

Almanac

Astronomy

Sep. 17, 2014 Rise Set
Actual Time 7:28 AM EDT 7:50 PM EDT
Civil Twilight 7:02 AM EDT 8:16 PM EDT
Nautical Twilight 6:30 AM EDT 8:47 PM EDT
Astronomical Twilight 5:59 AM EDT 9:19 PM EDT
Moon 1:31 AM EDT 3:56 PM EDT
Length of Visible Light 13h 14m
Length of Day
12h 21m
Tomorrow will be 2m 27s shorter.
Waning Crescent, 35% of the Moon is Illuminated
Today
Waning Crescent
Sep 24
New
Oct 1
First Quarter
Oct 8
Full
Oct 15
Last Quarter

Today's Extremes

State Highs State Lows

Community

WunderPhotos

Upload Photos

1,754,067 photos uploaded!

WunderBlogs® & News

Nearby

Air Quality

  Air Quality AQ Index Pollutant
Yesterday Good
PM10
Yesterday Good
OZONE
Current Moderate
PM2.5
Current Good
OZONE
Wednesday Moderate
PM2.5
Wednesday Good
OZONE
Thursday Moderate
PM2.5
Thursday Good
OZONE

Snow Depth

Station Depth Elevation
No new snow has been reported.

Earthquake Activity

City Distance Mag. Time & Date
No recent earthquake activity has been reported nearby.
Minimum magnitude displayed is 2.5.

Coastal Water Temperatures

Place Temperature
No Stations Reporting

Nearby Weather Stations